createdAt,value
2018-04-17T00:01:45.510Z,83.30
2018-04-17T00:04:14.819Z,84.70
2018-04-17T00:06:44.110Z,85.20
2018-04-17T00:09:13.391Z,85.10
2018-04-17T00:11:43.480Z,85.90
2018-04-17T00:14:12.767Z,85.80
2018-04-17T00:16:42.174Z,86.30
2018-04-17T00:19:11.464Z,86.90
2018-04-17T00:21:40.781Z,86.80
2018-04-17T00:24:10.082Z,87.30
2018-04-17T00:26:39.371Z,87.30
2018-04-17T00:29:08.654Z,87.80
2018-04-17T00:31:37.921Z,88.20
2018-04-17T00:34:07.210Z,88.20
2018-04-17T00:36:37.276Z,88.50
2018-04-17T00:39:06.573Z,88.50
2018-04-17T00:41:35.868Z,88.80
2018-04-17T00:44:05.170Z,89.40
2018-04-17T00:46:34.463Z,89.50
2018-04-17T00:49:03.752Z,89.60
2018-04-17T00:51:33.069Z,90.00
2018-04-17T00:54:04.804Z,90.10
2018-04-17T00:56:34.105Z,89.90
2018-04-17T00:59:03.385Z,90.40
2018-04-17T01:01:33.440Z,90.40
2018-04-17T01:04:02.726Z,90.40
2018-04-17T01:06:32.018Z,90.60
2018-04-17T01:09:01.306Z,90.60
2018-04-17T01:11:31.386Z,91.10
2018-04-17T01:14:00.668Z,91.10
2018-04-17T01:16:29.957Z,91.30
2018-04-17T01:18:59.268Z,91.10
2018-04-17T01:21:28.563Z,90.70
2018-04-17T01:23:57.865Z,90.80
2018-04-17T01:26:27.173Z,91.30
2018-04-17T01:28:56.475Z,91.30
2018-04-17T01:31:25.775Z,91.30
2018-04-17T01:33:55.062Z,91.20
2018-04-17T01:36:24.344Z,91.30
2018-04-17T01:38:53.638Z,91.40
2018-04-17T01:41:23.695Z,91.50
2018-04-17T01:43:53.003Z,91.50
2018-04-17T01:46:22.277Z,91.80
2018-04-17T01:48:51.551Z,91.90
2018-04-17T01:51:21.618Z,92.00
2018-04-17T01:53:50.910Z,92.00
2018-04-17T01:56:20.194Z,92.20
2018-04-17T01:58:49.485Z,92.20
2018-04-17T02:01:18.791Z,92.40
2018-04-17T02:03:48.076Z,92.50
2018-04-17T02:06:17.394Z,92.50
2018-04-17T02:08:46.684Z,92.40
2018-04-17T02:11:15.997Z,92.60
2018-04-17T02:13:45.268Z,92.70
2018-04-17T02:16:15.334Z,93.10
2018-04-17T02:18:44.653Z,93.10
2018-04-17T02:21:13.929Z,93.20
2018-04-17T02:23:43.540Z,93.40
2018-04-17T02:26:12.828Z,93.30
2018-04-17T02:28:42.102Z,93.20
2018-04-17T02:31:12.163Z,93.50
2018-04-17T02:33:41.480Z,93.50
2018-04-17T02:36:10.752Z,93.50
2018-04-17T02:38:40.049Z,93.60
2018-04-17T02:41:09.435Z,93.70
2018-04-17T02:43:39.484Z,93.80
2018-04-17T02:46:08.787Z,93.80
2018-04-17T02:48:38.117Z,93.70
2018-04-17T02:51:07.404Z,93.70
2018-04-17T02:53:36.689Z,94.00
2018-04-17T02:56:06.658Z,94.10
2018-04-17T02:58:36.708Z,94.00
2018-04-17T03:01:05.990Z,94.00
2018-04-17T03:03:35.279Z,94.10
2018-04-17T03:06:05.330Z,94.50
2018-04-17T03:08:34.627Z,94.40
2018-04-17T03:11:03.916Z,94.80
2018-04-17T03:13:33.429Z,94.70
2018-04-17T03:16:02.904Z,94.70
2018-04-17T03:18:32.953Z,94.50
2018-04-17T03:21:02.276Z,94.50
2018-04-17T03:23:31.594Z,94.70
2018-04-17T03:26:00.883Z,94.60
2018-04-17T03:28:30.234Z,94.50
2018-04-17T03:31:00.313Z,94.80
2018-04-17T03:33:29.625Z,94.80
2018-04-17T03:35:58.901Z,94.80
2018-04-17T03:38:28.206Z,94.90
2018-04-17T03:40:57.507Z,95.00
2018-04-17T03:43:26.791Z,94.90
2018-04-17T03:45:56.070Z,94.90
2018-04-17T03:48:25.369Z,95.00
2018-04-17T03:50:54.657Z,94.60
2018-04-17T03:53:23.966Z,94.70
2018-04-17T03:55:53.265Z,94.70
2018-04-17T03:58:22.551Z,94.90
2018-04-17T04:00:52.719Z,94.90
2018-04-17T04:03:22.448Z,94.90
2018-04-17T04:05:55.390Z,94.90
2018-04-17T04:08:24.656Z,95.10
2018-04-17T04:10:54.706Z,95.40
2018-04-17T04:13:23.996Z,95.40
2018-04-17T04:15:53.289Z,95.50
2018-04-17T04:18:39.998Z,95.60
2018-04-17T04:24:36.104Z,95.60
2018-04-17T04:27:05.390Z,95.70
2018-04-17T04:29:34.672Z,95.60
2018-04-17T04:32:03.978Z,95.60
2018-04-17T04:34:33.368Z,95.80
2018-04-17T04:37:03.194Z,96.00
2018-04-17T04:39:32.491Z,96.10
2018-04-17T04:42:01.801Z,96.10
2018-04-17T04:44:31.077Z,96.10
2018-04-17T04:47:00.360Z,96.20
2018-04-17T04:49:30.470Z,96.40
2018-04-17T04:52:01.150Z,96.40
2018-04-17T04:54:30.445Z,96.40
2018-04-17T04:56:59.728Z,96.50
2018-04-17T04:59:29.055Z,96.50
2018-04-17T05:01:58.337Z,96.30
2018-04-17T05:04:27.662Z,96.40
2018-04-17T05:06:56.966Z,96.40
2018-04-17T05:09:26.289Z,96.50
2018-04-17T05:11:55.582Z,96.50
2018-04-17T05:14:24.879Z,96.70
2018-04-17T05:16:54.177Z,96.80
2018-04-17T05:19:23.468Z,96.70
2018-04-17T05:21:52.760Z,96.90
2018-04-17T05:24:22.064Z,97.00
2018-04-17T05:26:52.140Z,97.60
2018-04-17T05:29:21.428Z,97.30
2018-04-17T05:31:51.502Z,97.50
2018-04-17T05:34:20.805Z,97.50
2018-04-17T05:36:50.095Z,96.80
2018-04-17T05:39:19.397Z,96.20
2018-04-17T05:41:48.704Z,94.90
2018-04-17T05:44:18.088Z,94.20
2018-04-17T05:46:47.366Z,94.00
2018-04-17T05:49:16.672Z,93.20
2018-04-17T05:51:45.973Z,92.90
2018-04-17T05:54:16.037Z,92.00
2018-04-17T05:56:45.341Z,92.00
2018-04-17T05:59:14.622Z,91.00
2018-04-17T06:01:43.922Z,90.80
2018-04-17T06:04:13.212Z,90.50
2018-04-17T06:06:42.533Z,90.00
2018-04-17T06:09:11.829Z,89.90
2018-04-17T06:11:41.133Z,89.40
2018-04-17T06:14:10.443Z,88.90
2018-04-17T06:16:39.750Z,87.40
2018-04-17T06:19:09.074Z,87.10
2018-04-17T06:21:38.374Z,86.60
2018-04-17T06:24:07.674Z,84.90
2018-04-17T06:26:36.966Z,83.80
2018-04-17T06:29:06.271Z,83.40
2018-04-17T06:31:36.326Z,82.30
2018-04-17T06:34:05.630Z,82.30
2018-04-17T06:36:34.921Z,81.20
2018-04-17T06:39:04.221Z,81.70
2018-04-17T06:41:33.543Z,81.70
2018-04-17T06:44:02.900Z,81.00
2018-04-17T06:46:32.267Z,81.20
2018-04-17T06:49:02.358Z,80.50
2018-04-17T06:51:31.668Z,80.50
2018-04-17T06:54:00.963Z,80.10
2018-04-17T06:56:30.270Z,81.10
2018-04-17T06:58:59.559Z,81.00
2018-04-17T07:01:28.863Z,79.80
2018-04-17T07:03:58.140Z,79.60
2018-04-17T07:06:27.465Z,78.50
2018-04-17T07:08:56.763Z,77.90
2018-04-17T07:11:26.060Z,77.00
2018-04-17T07:13:55.363Z,77.70
2018-04-17T07:16:24.671Z,77.90
2018-04-17T07:18:53.964Z,76.60
2018-04-17T07:21:23.252Z,78.00
2018-04-17T07:23:52.548Z,78.20
2018-04-17T07:26:21.826Z,76.30
2018-04-17T07:28:51.908Z,76.90
2018-04-17T07:31:21.210Z,76.90
2018-04-17T07:33:50.517Z,77.00
2018-04-17T07:36:19.813Z,77.70
2018-04-17T07:38:49.120Z,77.60
2018-04-17T07:41:18.430Z,78.10
2018-04-17T07:43:47.723Z,79.30
2018-04-17T07:46:17.027Z,78.80
2018-04-17T07:48:50.745Z,77.60
2018-04-17T07:51:20.053Z,79.10
2018-04-17T07:53:49.350Z,79.50
2018-04-17T07:56:18.650Z,79.60
2018-04-17T07:58:47.967Z,79.60
2018-04-17T08:01:18.040Z,79.50
2018-04-17T08:03:47.347Z,79.40
2018-04-17T08:06:16.648Z,80.50
2018-04-17T08:08:45.971Z,80.80
2018-04-17T08:11:16.023Z,81.20
2018-04-17T08:13:45.323Z,81.20
2018-04-17T08:16:14.603Z,82.00
2018-04-17T08:18:44.670Z,81.80
2018-04-17T08:21:13.972Z,81.80
2018-04-17T08:23:43.291Z,81.50
2018-04-17T08:26:12.587Z,82.30
2018-04-17T08:28:41.883Z,81.50
2018-04-17T08:31:11.181Z,82.00
2018-04-17T08:33:41.302Z,82.50
2018-04-17T08:36:10.613Z,82.80
2018-04-17T08:38:39.884Z,79.10
2018-04-17T08:41:09.186Z,80.90
2018-04-17T08:43:38.473Z,81.50
2018-04-17T08:46:07.778Z,81.80
2018-04-17T08:48:38.054Z,82.20
2018-04-17T08:51:07.361Z,82.30
2018-04-17T08:53:37.431Z,82.40
2018-04-17T08:56:06.730Z,82.40
2018-04-17T08:58:36.039Z,82.40
2018-04-17T09:01:06.313Z,81.80
2018-04-17T09:03:35.616Z,82.30
2018-04-17T09:06:04.966Z,83.00
2018-04-17T09:08:34.260Z,82.00
2018-04-17T09:11:03.574Z,81.60
2018-04-17T09:13:32.884Z,81.40
2018-04-17T09:16:02.195Z,80.70
2018-04-17T09:18:31.502Z,79.90
2018-04-17T09:21:01.567Z,79.80
2018-04-17T09:23:30.874Z,79.70
2018-04-17T09:26:00.187Z,81.80
2018-04-17T09:28:29.486Z,80.00
2018-04-17T09:30:58.779Z,81.00
2018-04-17T09:33:28.087Z,79.40
2018-04-17T09:35:57.392Z,79.60
2018-04-17T09:38:26.690Z,79.80
2018-04-17T09:40:56.003Z,79.00
2018-04-17T09:43:25.294Z,78.80
2018-04-17T09:45:54.602Z,78.20
2018-04-17T09:48:23.904Z,79.20
2018-04-17T09:50:53.198Z,76.90
2018-04-17T09:53:22.497Z,76.60
2018-04-17T09:55:51.784Z,76.60
2018-04-17T09:58:21.090Z,76.70
2018-04-17T10:00:55.830Z,77.10
2018-04-17T10:03:25.133Z,76.50
2018-04-17T10:05:54.416Z,75.60
2018-04-17T10:08:23.723Z,75.40
2018-04-17T10:10:53.014Z,74.70
2018-04-17T10:13:23.090Z,72.90
2018-04-17T10:15:52.430Z,72.90
2018-04-17T10:18:21.712Z,72.50
2018-04-17T10:20:51.026Z,74.50
2018-04-17T10:23:20.332Z,71.50
2018-04-17T10:25:49.628Z,72.20
2018-04-17T10:28:18.923Z,73.30
2018-04-17T10:30:48.225Z,73.10
2018-04-17T10:33:17.510Z,70.50
2018-04-17T10:35:46.805Z,69.20
2018-04-17T10:38:16.097Z,68.90
2018-04-17T10:40:46.161Z,67.50
2018-04-17T10:43:15.511Z,67.50
2018-04-17T10:45:44.854Z,67.40
2018-04-17T10:48:14.158Z,67.20
2018-04-17T10:50:44.082Z,67.90
2018-04-17T10:53:13.402Z,69.40
2018-04-17T10:55:42.687Z,69.00
2018-04-17T10:58:12.498Z,68.80
2018-04-17T11:00:41.859Z,69.20
2018-04-17T11:03:11.148Z,69.40
2018-04-17T11:05:41.214Z,68.20
2018-04-17T11:08:10.506Z,68.20
2018-04-17T11:10:39.787Z,68.70
2018-04-17T11:13:09.081Z,67.80
2018-04-17T11:15:38.376Z,67.20
2018-04-17T11:18:07.677Z,69.30
2018-04-17T11:20:37.752Z,67.40
2018-04-17T11:23:07.026Z,67.40
2018-04-17T11:25:36.330Z,66.40
2018-04-17T11:28:05.644Z,65.20
2018-04-17T11:30:35.699Z,62.40
2018-04-17T11:33:05.796Z,64.20
2018-04-17T11:35:35.059Z,64.20
2018-04-17T11:38:04.437Z,63.70
2018-04-17T11:40:34.500Z,61.70
2018-04-17T11:43:03.816Z,61.70
2018-04-17T11:45:33.090Z,60.90
2018-04-17T11:48:02.386Z,60.40
2018-04-17T11:50:31.670Z,59.60
2018-04-17T11:53:00.968Z,58.50
2018-04-17T11:55:30.271Z,59.20
2018-04-17T11:57:59.556Z,58.70
2018-04-17T12:00:28.832Z,59.40
2018-04-17T12:02:58.138Z,58.10
2018-04-17T12:05:27.446Z,59.70
2018-04-17T12:07:57.507Z,59.90
2018-04-17T12:10:26.839Z,59.90
2018-04-17T12:12:56.130Z,57.90
2018-04-17T12:15:25.438Z,58.10
2018-04-17T12:17:54.739Z,56.60
2018-04-17T12:20:24.081Z,55.60
2018-04-17T12:22:53.400Z,56.90
2018-04-17T12:25:23.453Z,55.30
2018-04-17T12:27:52.923Z,55.30
2018-04-17T12:30:22.207Z,52.30
2018-04-17T12:32:51.504Z,52.40
2018-04-17T12:35:21.567Z,48.60
2018-04-17T12:37:50.869Z,48.60
2018-04-17T12:40:20.148Z,49.20
2018-04-17T12:42:49.438Z,49.40
2018-04-17T12:45:18.820Z,50.90
2018-04-17T12:47:48.887Z,52.90
2018-04-17T12:50:18.197Z,52.40
2018-04-17T12:52:47.466Z,53.20
2018-04-17T12:55:16.760Z,52.30
2018-04-17T12:57:46.067Z,51.40
2018-04-17T13:00:15.349Z,51.80
2018-04-17T13:02:44.661Z,50.10
2018-04-17T13:05:13.998Z,50.70
2018-04-17T13:07:43.334Z,49.60
2018-04-17T13:10:13.345Z,48.10
2018-04-17T13:12:43.439Z,48.30
2018-04-17T13:15:12.758Z,48.90
2018-04-17T13:17:42.026Z,48.50
2018-04-17T13:20:11.328Z,46.70
2018-04-17T13:22:40.623Z,46.20
2018-04-17T13:25:09.915Z,47.90
2018-04-17T13:27:39.201Z,46.90
2018-04-17T13:30:08.520Z,49.10
2018-04-17T13:32:37.847Z,49.40
2018-04-17T13:35:07.223Z,48.20
2018-04-17T13:37:36.514Z,47.90
2018-04-17T13:40:05.957Z,48.50
2018-04-17T13:42:35.263Z,49.30
2018-04-17T13:45:04.571Z,48.10
2018-04-17T13:47:33.893Z,48.10
2018-04-17T13:50:03.974Z,49.20
2018-04-17T13:52:33.275Z,49.20
2018-04-17T13:55:03.098Z,49.10
2018-04-17T13:57:32.396Z,48.50
2018-04-17T14:00:01.684Z,48.90
2018-04-17T14:02:31.017Z,48.80
2018-04-17T14:05:00.299Z,49.10
2018-04-17T14:07:29.584Z,47.70
2018-04-17T14:09:58.877Z,47.70
2018-04-17T14:12:28.183Z,49.10
2018-04-17T14:14:57.472Z,48.30
2018-04-17T14:17:26.805Z,48.40
2018-04-17T14:19:56.085Z,47.30
2018-04-17T14:22:25.381Z,47.50
2018-04-17T14:24:54.690Z,48.30
2018-04-17T14:27:24.156Z,48.10
2018-04-17T14:29:53.586Z,48.70
2018-04-17T14:32:22.901Z,48.00
2018-04-17T14:34:52.215Z,47.90
2018-04-17T14:37:23.714Z,47.80
2018-04-17T14:39:53.579Z,47.10
2018-04-17T14:42:22.876Z,47.40
2018-04-17T14:44:52.309Z,46.70
2018-04-17T14:47:21.645Z,48.90
2018-04-17T14:49:50.993Z,48.50
2018-04-17T14:52:20.294Z,48.80
2018-04-17T14:54:49.675Z,47.40
2018-04-17T14:57:19.035Z,47.30
2018-04-17T14:59:48.353Z,47.40
2018-04-17T15:02:17.648Z,48.80
2018-04-17T15:04:46.978Z,47.60
2018-04-17T15:07:16.285Z,47.50
2018-04-17T15:09:45.591Z,47.40
2018-04-17T15:12:14.909Z,47.90
2018-04-17T15:14:44.283Z,47.90
2018-04-17T15:17:13.634Z,48.30
2018-04-17T15:19:42.944Z,48.30
2018-04-17T15:22:12.239Z,48.10
2018-04-17T15:24:41.525Z,48.90
2018-04-17T15:27:10.831Z,48.60
2018-04-17T15:29:40.154Z,48.80
2018-04-17T15:32:09.441Z,48.90
2018-04-17T15:34:38.723Z,48.40
2018-04-17T15:37:08.787Z,48.90
2018-04-17T15:39:38.089Z,48.80
2018-04-17T15:42:07.379Z,49.30
2018-04-17T15:44:36.686Z,49.10
2018-04-17T15:47:05.987Z,48.60
2018-04-17T15:49:35.394Z,48.50
2018-04-17T15:52:04.872Z,48.10
2018-04-17T15:54:34.219Z,48.80
2018-04-17T15:57:03.457Z,48.70
2018-04-17T15:59:32.768Z,47.90
2018-04-17T16:02:02.059Z,49.00
2018-04-17T16:04:31.370Z,48.10
2018-04-17T16:07:00.670Z,49.30
2018-04-17T16:09:29.995Z,48.10
2018-04-17T16:11:59.308Z,49.20
2018-04-17T16:14:28.599Z,48.90
2018-04-17T16:16:57.883Z,48.60
2018-04-17T16:19:27.671Z,48.70
2018-04-17T16:21:58.693Z,48.70
2018-04-17T16:24:28.261Z,49.70
2018-04-17T16:26:57.530Z,49.40
2018-04-17T16:29:26.877Z,49.90
2018-04-17T16:31:57.088Z,50.40
2018-04-17T16:34:26.365Z,50.40
2018-04-17T16:36:55.665Z,50.80
2018-04-17T16:39:24.984Z,51.40
2018-04-17T16:41:54.957Z,51.60
2018-04-17T16:44:24.212Z,52.40
2018-04-17T16:46:53.538Z,52.10
2018-04-17T16:49:22.827Z,51.70
2018-04-17T16:51:52.150Z,51.60
2018-04-17T16:54:22.209Z,52.70
2018-04-17T16:56:51.501Z,52.70
2018-04-17T16:59:20.797Z,52.50
2018-04-17T17:01:50.091Z,52.60
2018-04-17T17:04:19.442Z,53.10
2018-04-17T17:06:48.726Z,52.00
2018-04-17T17:09:18.025Z,52.70
2018-04-17T17:11:47.314Z,52.70
2018-04-17T17:14:16.595Z,53.00
2018-04-17T17:16:45.895Z,53.40
2018-04-17T17:19:15.216Z,53.20
2018-04-17T17:21:44.522Z,53.80
2018-04-17T17:24:13.808Z,53.70
2018-04-17T17:26:43.149Z,54.30
2018-04-17T17:29:12.435Z,54.50
2018-04-17T17:31:41.722Z,54.80
2018-04-17T17:34:11.022Z,54.70
2018-04-17T17:36:40.318Z,54.90
2018-04-17T17:39:09.620Z,54.50
2018-04-17T17:41:38.917Z,54.90
2018-04-17T17:44:08.284Z,55.20
2018-04-17T17:46:37.594Z,55.00
2018-04-17T17:49:07.663Z,55.00
2018-04-17T17:51:36.968Z,55.00
2018-04-17T17:54:06.261Z,55.50
2018-04-17T17:56:35.557Z,55.50
2018-04-17T17:59:04.862Z,55.70
2018-04-17T18:01:34.737Z,55.80
2018-04-17T18:04:05.086Z,56.00
2018-04-17T18:06:34.407Z,56.00
2018-04-17T18:09:03.870Z,56.00
2018-04-17T18:11:33.194Z,56.50
2018-04-17T18:14:02.461Z,56.50
2018-04-17T18:16:31.787Z,56.60
2018-04-17T18:19:01.069Z,56.60
2018-04-17T18:21:30.362Z,56.80
2018-04-17T18:24:00.442Z,57.30
2018-04-17T18:26:29.716Z,57.30
2018-04-17T18:28:59.019Z,57.50
2018-04-17T18:31:28.345Z,57.50
2018-04-17T18:33:57.633Z,57.70
2018-04-17T18:36:26.937Z,57.50
2018-04-17T18:38:56.280Z,57.80
2018-04-17T18:41:25.622Z,57.90
2018-04-17T18:43:54.993Z,58.00
2018-04-17T18:46:25.034Z,58.60
2018-04-17T18:48:54.337Z,58.60
2018-04-17T18:51:23.736Z,58.80
2018-04-17T18:53:53.205Z,59.40
2018-04-17T18:56:22.516Z,61.20
2018-04-17T18:58:51.840Z,62.40
2018-04-17T19:01:21.185Z,61.70
2018-04-17T19:03:50.474Z,61.20
2018-04-17T19:06:19.946Z,61.50
2018-04-17T19:08:50.051Z,63.40
2018-04-17T19:11:19.619Z,65.90
2018-04-17T19:13:49.002Z,65.80
2018-04-17T19:16:18.296Z,65.70
2018-04-17T19:18:48.373Z,65.30
2018-04-17T19:21:17.739Z,65.30
2018-04-17T19:23:47.582Z,65.40
2018-04-17T19:26:17.642Z,66.30
2018-04-17T19:28:47.737Z,66.30
2018-04-17T19:31:17.051Z,67.00
2018-04-17T19:33:46.347Z,68.40
2018-04-17T19:36:15.665Z,68.70
2018-04-17T19:38:46.002Z,69.10
2018-04-17T19:41:15.323Z,69.70
2018-04-17T19:43:44.618Z,70.30
2018-04-17T19:46:13.930Z,71.40
2018-04-17T19:48:43.244Z,71.70
2018-04-17T19:51:12.674Z,70.80
2018-04-17T19:53:42.004Z,71.20
2018-04-17T19:56:11.264Z,72.30
2018-04-17T19:58:42.916Z,72.60
2018-04-17T20:01:16.173Z,74.30
2018-04-17T20:03:45.766Z,72.70
2018-04-17T20:06:15.025Z,73.00
2018-04-17T20:08:44.331Z,73.10
2018-04-17T20:11:13.646Z,73.00
2018-04-17T20:13:43.157Z,73.70
2018-04-17T20:16:12.466Z,74.40
2018-04-17T20:18:41.757Z,75.00
2018-04-17T20:21:11.054Z,75.10
2018-04-17T20:23:40.365Z,76.50
2018-04-17T20:26:09.656Z,76.60
2018-04-17T20:28:38.946Z,77.40
2018-04-17T20:31:08.244Z,78.00
2018-04-17T20:33:37.603Z,78.00
2018-04-17T20:36:07.642Z,78.30
2018-04-17T20:38:37.234Z,78.50
2018-04-17T20:41:06.529Z,78.50
2018-04-17T20:43:36.614Z,81.10
2018-04-17T20:46:05.905Z,81.10
2018-04-17T20:48:35.211Z,81.30
2018-04-17T20:51:05.264Z,81.50
2018-04-17T20:53:35.344Z,81.70
2018-04-17T20:56:04.639Z,81.50
2018-04-17T20:58:34.019Z,82.60
2018-04-17T21:01:03.353Z,82.80
2018-04-17T21:03:33.630Z,83.20
2018-04-17T21:06:03.817Z,84.30
2018-04-17T21:08:33.089Z,84.30
2018-04-17T21:11:02.377Z,83.70
2018-04-17T21:13:31.685Z,84.30
2018-04-17T21:16:01.008Z,84.70
2018-04-17T21:18:30.305Z,85.30
2018-04-17T21:20:59.615Z,85.60
2018-04-17T21:23:28.896Z,85.10
2018-04-17T21:25:58.218Z,85.70
2018-04-17T21:28:27.504Z,86.50
2018-04-17T21:30:57.794Z,86.70
2018-04-17T21:33:27.101Z,86.70
2018-04-17T21:35:56.387Z,86.90
2018-04-17T21:38:25.679Z,87.00
2018-04-17T21:40:55.730Z,88.30
2018-04-17T21:43:25.033Z,88.30
2018-04-17T21:45:54.338Z,88.30
2018-04-17T21:48:23.631Z,88.50
2018-04-17T21:50:52.914Z,89.10
2018-04-17T21:53:22.222Z,89.50
2018-04-17T21:55:51.553Z,90.00
2018-04-17T21:58:20.862Z,90.10
2018-04-17T22:00:50.250Z,90.40
2018-04-17T22:03:20.343Z,90.60
2018-04-17T22:05:49.657Z,90.20
2018-04-17T22:08:18.988Z,90.40
2018-04-17T22:10:48.320Z,90.60
2018-04-17T22:13:18.394Z,90.90
2018-04-17T22:15:47.737Z,90.80
2018-04-17T22:18:17.095Z,91.00
2018-04-17T22:20:46.388Z,91.00
2018-04-17T22:23:15.696Z,91.20
2018-04-17T22:25:45.037Z,91.30
2018-04-17T22:28:15.086Z,91.30
2018-04-17T22:30:44.462Z,91.30
2018-04-17T22:33:14.563Z,91.50
2018-04-17T22:35:43.868Z,91.50
2018-04-17T22:38:13.185Z,91.70
2018-04-17T22:40:43.266Z,91.70
2018-04-17T22:43:12.557Z,91.70
2018-04-17T22:45:41.871Z,91.90
2018-04-17T22:48:11.199Z,92.00
2018-04-17T22:50:40.514Z,92.00
2018-04-17T22:53:09.839Z,92.20
2018-04-17T22:55:39.218Z,92.30
2018-04-17T22:58:08.526Z,92.50
2018-04-17T23:00:37.842Z,92.70
2018-04-17T23:03:07.230Z,93.00
2018-04-17T23:05:36.549Z,92.80
2018-04-17T23:08:05.924Z,93.00
2018-04-17T23:10:35.233Z,93.10
2018-04-17T23:13:04.541Z,93.20
2018-04-17T23:15:33.848Z,93.20
2018-04-17T23:18:04.070Z,93.30
2018-04-17T23:20:33.406Z,93.50
2018-04-17T23:23:02.735Z,93.60
2018-04-17T23:25:32.051Z,93.70
2018-04-17T23:28:01.351Z,93.50
2018-04-17T23:30:30.645Z,93.50
2018-04-17T23:33:00.776Z,93.40
2018-04-17T23:35:30.840Z,93.70
2018-04-17T23:38:00.180Z,93.80
2018-04-17T23:40:30.228Z,93.90
2018-04-17T23:42:59.558Z,93.90
2018-04-17T23:45:28.851Z,94.00
2018-04-17T23:47:58.180Z,94.10
2018-04-17T23:50:27.501Z,94.20
2018-04-17T23:52:57.587Z,94.30
2018-04-17T23:55:26.889Z,94.30
2018-04-17T23:57:56.205Z,94.40
